createdAt,value
2022-09-28T00:01:22.024Z,1.42
2022-09-28T00:03:51.747Z,1.20
2022-09-28T00:06:22.798Z,0.95
2022-09-28T00:08:51.737Z,0.73
2022-09-28T00:11:21.480Z,1.42
2022-09-28T00:13:51.610Z,0.75
2022-09-28T00:16:22.931Z,0.52
2022-09-28T00:18:51.442Z,0.57
2022-09-28T00:21:22.014Z,1.33
2022-09-28T00:23:53.855Z,0.95
2022-09-28T00:26:22.327Z,1.15
2022-09-28T00:28:55.145Z,0.50
2022-09-28T00:31:23.439Z,1.40
2022-09-28T00:33:55.482Z,0.75
2022-09-28T00:36:24.610Z,0.93
2022-09-28T00:38:52.666Z,0.52
2022-09-28T00:41:20.927Z,0.70
2022-09-28T00:43:49.224Z,0.68
2022-09-28T00:46:35.695Z,0.47
2022-09-28T00:49:09.609Z,0.35
2022-09-28T00:51:40.396Z,0.85
2022-09-28T00:54:09.410Z,1.27
2022-09-28T00:56:41.153Z,0.43
2022-09-28T00:59:10.241Z,0.98
2022-09-28T01:01:39.099Z,0.40
2022-09-28T01:04:07.806Z,0.50
2022-09-28T01:06:38.686Z,0.45
2022-09-28T01:09:11.076Z,0.38
2022-09-28T01:11:40.449Z,0.60
2022-09-28T01:14:12.500Z,1.02
2022-09-28T01:16:46.955Z,0.40
2022-09-28T01:20:08.146Z,0.68
2022-09-28T01:23:01.508Z,0.32
2022-09-28T01:25:42.376Z,1.10
2022-09-28T01:28:17.788Z,1.38
2022-09-28T01:31:12.803Z,1.05
2022-09-28T01:33:52.650Z,0.38
2022-09-28T01:36:34.137Z,0.40
2022-09-28T01:39:41.557Z,0.40
2022-09-28T01:42:17.515Z,1.10
2022-09-28T01:44:50.341Z,0.57
2022-09-28T01:47:23.521Z,0.38
2022-09-28T01:50:03.646Z,0.40
2022-09-28T01:52:58.851Z,0.13
2022-09-28T01:55:44.753Z,0.68
2022-09-28T01:58:39.083Z,0.30
2022-09-28T02:01:29.985Z,0.35
2022-09-28T02:04:09.280Z,0.60
2022-09-28T02:06:44.688Z,0.77
2022-09-28T02:09:21.369Z,0.30
2022-09-28T02:12:00.269Z,0.35
2022-09-28T02:14:30.667Z,0.40
2022-09-28T02:16:59.266Z,1.33
2022-09-28T02:19:32.469Z,0.40
2022-09-28T02:22:09.309Z,0.40
2022-09-28T02:24:43.280Z,1.05
2022-09-28T02:27:38.638Z,0.38
2022-09-28T02:30:08.060Z,0.50
2022-09-28T02:32:39.959Z,0.30
2022-09-28T02:35:14.503Z,0.50
2022-09-28T02:37:43.948Z,0.68
2022-09-28T02:40:18.545Z,0.17
2022-09-28T02:43:23.958Z,0.52
2022-09-28T02:45:57.560Z,0.43
2022-09-28T02:48:44.215Z,0.43
2022-09-28T02:51:37.459Z,0.38
2022-09-28T02:54:31.405Z,0.40
2022-09-28T02:57:36.837Z,1.05
2022-09-28T03:00:06.705Z,0.40
2022-09-28T03:03:10.407Z,0.20
2022-09-28T03:06:10.636Z,0.55
2022-09-28T03:09:05.349Z,0.43
2022-09-28T03:11:52.379Z,0.15
2022-09-28T03:14:20.797Z,0.50
2022-09-28T03:16:58.396Z,0.27
2022-09-28T03:19:31.853Z,0.20
2022-09-28T03:22:01.832Z,0.50
2022-09-28T03:24:30.175Z,1.02
2022-09-28T03:26:58.193Z,0.10
2022-09-28T03:29:26.429Z,0.40
2022-09-28T03:32:00.675Z,0.20
2022-09-28T03:34:28.819Z,0.20
2022-09-28T03:36:57.322Z,0.60
2022-09-28T03:39:25.467Z,0.13
2022-09-28T03:41:53.479Z,0.70
2022-09-28T03:44:22.854Z,0.63
2022-09-28T03:49:19.405Z,0.65
2022-09-28T03:51:50.585Z,0.15
2022-09-28T03:54:18.843Z,0.65
2022-09-28T03:56:47.112Z,0.35
2022-09-28T03:59:15.562Z,0.10
2022-09-28T04:01:43.877Z,0.20
2022-09-28T04:04:13.426Z,0.32
2022-09-28T04:06:42.191Z,0.10
2022-09-28T04:09:12.318Z,0.30
2022-09-28T04:11:59.703Z,0.65
2022-09-28T04:14:31.047Z,0.40
2022-09-28T04:16:59.369Z,0.10
2022-09-28T04:19:29.410Z,0.20
2022-09-28T04:22:16.766Z,0.47
2022-09-28T04:24:45.033Z,0.15
2022-09-28T04:27:13.344Z,0.08
2022-09-28T04:29:41.569Z,0.10
2022-09-28T04:32:11.485Z,0.30
2022-09-28T04:34:44.117Z,0.80
2022-09-28T04:37:13.162Z,0.98
2022-09-28T04:39:45.021Z,0.77
2022-09-28T04:42:17.988Z,0.13
2022-09-28T04:44:46.961Z,0.30
2022-09-28T04:47:15.117Z,0.13
2022-09-28T04:49:58.439Z,0.80
2022-09-28T04:52:31.435Z,0.30
2022-09-28T04:54:59.779Z,0.15
2022-09-28T04:57:27.891Z,0.20
2022-09-28T04:59:56.183Z,0.10
2022-09-28T05:02:24.450Z,0.22
2022-09-28T05:05:24.356Z,0.20
2022-09-28T05:08:10.897Z,0.63
2022-09-28T05:10:39.343Z,0.50
2022-09-28T05:13:12.422Z,0.43
2022-09-28T05:15:42.894Z,0.30
2022-09-28T05:18:11.460Z,0.43
2022-09-28T05:21:02.289Z,0.63
2022-09-28T05:23:30.532Z,0.20
2022-09-28T05:26:02.456Z,0.40
2022-09-28T05:28:33.707Z,0.50
2022-09-28T05:31:33.699Z,0.65
2022-09-28T05:34:12.506Z,0.57
2022-09-28T05:36:40.803Z,0.20
2022-09-28T05:39:09.261Z,0.57
2022-09-28T05:41:37.468Z,0.40
2022-09-28T05:46:35.890Z,0.28
2022-09-28T05:49:04.560Z,0.57
2022-09-28T05:51:32.723Z,0.22
2022-09-28T05:54:04.835Z,0.40
2022-09-28T05:56:34.661Z,0.47
2022-09-28T05:59:05.629Z,0.40
2022-09-28T06:01:33.967Z,0.20
2022-09-28T06:04:03.288Z,0.20
2022-09-28T06:06:32.615Z,0.50
2022-09-28T06:09:00.870Z,0.50
2022-09-28T06:11:54.878Z,0.85
2022-09-28T06:14:33.713Z,0.52
2022-09-28T06:17:02.318Z,0.20
2022-09-28T06:19:30.589Z,0.47
2022-09-28T06:22:27.682Z,0.63
2022-09-28T06:25:02.181Z,0.20
2022-09-28T06:27:30.421Z,0.40
2022-09-28T06:29:58.719Z,0.60
2022-09-28T06:32:26.991Z,0.25
2022-09-28T06:34:56.608Z,0.20
2022-09-28T06:37:26.722Z,0.20
2022-09-28T06:39:55.002Z,0.20
2022-09-28T06:42:24.937Z,0.30
2022-09-28T06:45:22.034Z,0.40
2022-09-28T06:48:10.662Z,0.30
2022-09-28T06:50:43.506Z,0.25
2022-09-28T06:53:27.613Z,0.40
2022-09-28T06:56:10.890Z,0.63
2022-09-28T06:58:39.220Z,0.30
2022-09-28T07:01:08.157Z,0.55
2022-09-28T07:03:56.519Z,0.20
2022-09-28T07:06:48.081Z,0.30
2022-09-28T07:09:49.322Z,0.30
2022-09-28T07:12:30.182Z,0.68
2022-09-28T07:15:03.399Z,0.30
2022-09-28T07:17:33.319Z,0.43
2022-09-28T07:20:16.691Z,0.30
2022-09-28T07:22:47.186Z,0.20
2022-09-28T07:25:19.923Z,0.47
2022-09-28T07:28:08.354Z,0.70
2022-09-28T07:30:56.924Z,0.50
2022-09-28T07:33:51.716Z,1.30
2022-09-28T07:36:31.322Z,0.32
2022-09-28T07:38:59.711Z,0.20
2022-09-28T07:41:28.155Z,0.20
2022-09-28T07:43:56.331Z,0.43
2022-09-28T07:46:24.906Z,0.50
2022-09-28T07:48:58.355Z,1.17
2022-09-28T07:51:45.118Z,0.30
2022-09-28T07:54:39.262Z,0.50
2022-09-28T07:57:18.654Z,0.43
2022-09-28T08:00:01.757Z,0.40
2022-09-28T08:02:42.150Z,0.50
2022-09-28T08:05:10.612Z,0.50
2022-09-28T08:07:38.868Z,0.45
2022-09-28T08:10:10.942Z,0.45
2022-09-28T08:13:17.345Z,0.47
2022-09-28T08:16:20.780Z,0.85
2022-09-28T08:19:00.729Z,0.60
2022-09-28T08:21:29.087Z,0.25
2022-09-28T08:23:57.362Z,0.20
2022-09-28T08:26:25.741Z,0.85
2022-09-28T08:28:54.281Z,0.30
2022-09-28T08:31:40.723Z,0.40
2022-09-28T08:37:15.735Z,0.50
2022-09-28T08:40:01.987Z,0.65
2022-09-28T08:43:10.110Z,0.82
2022-09-28T08:45:59.862Z,0.77
2022-09-28T08:49:25.914Z,0.32
2022-09-28T08:52:26.581Z,0.90
2022-09-28T08:55:19.601Z,0.50
2022-09-28T08:58:01.764Z,0.40
2022-09-28T09:00:50.410Z,0.70
2022-09-28T09:03:23.590Z,1.05
2022-09-28T09:06:40.225Z,0.35
2022-09-28T09:10:17.290Z,0.85
2022-09-28T09:13:02.451Z,0.50
2022-09-28T09:16:11.804Z,0.85
2022-09-28T09:19:16.742Z,1.00
2022-09-28T09:22:29.261Z,0.40
2022-09-28T09:25:16.693Z,1.30
2022-09-28T09:28:17.169Z,0.63
2022-09-28T09:31:08.883Z,1.00
2022-09-28T09:33:54.208Z,0.80
2022-09-28T09:37:14.865Z,0.55
2022-09-28T09:40:05.525Z,1.52
2022-09-28T09:43:29.516Z,0.82
2022-09-28T09:46:39.849Z,1.83
2022-09-28T09:49:26.889Z,1.30
2022-09-28T09:52:13.537Z,0.43
2022-09-28T09:55:15.341Z,0.77
2022-09-28T09:58:05.548Z,1.40
2022-09-28T10:00:46.281Z,0.40
2022-09-28T10:03:33.106Z,1.25
2022-09-28T10:06:27.231Z,1.48
2022-09-28T10:09:24.109Z,1.40
2022-09-28T10:11:52.722Z,1.30
2022-09-28T10:16:59.143Z,1.17
2022-09-28T10:19:50.428Z,1.23
2022-09-28T10:22:37.012Z,0.75
2022-09-28T10:25:13.942Z,0.85
2022-09-28T10:27:47.929Z,0.65
2022-09-28T10:30:18.964Z,0.70
2022-09-28T10:32:49.859Z,1.17
2022-09-28T10:35:21.438Z,1.75
2022-09-28T10:38:00.267Z,1.55
2022-09-28T10:40:49.170Z,1.23
2022-09-28T10:43:50.716Z,1.63
2022-09-28T10:46:24.865Z,1.33
2022-09-28T10:49:05.311Z,0.73
2022-09-28T10:51:45.284Z,1.00
2022-09-28T10:54:22.845Z,0.80
2022-09-28T10:56:55.053Z,0.60
2022-09-28T10:59:49.263Z,0.70
2022-09-28T11:02:49.480Z,50.97
2022-09-28T11:05:25.558Z,36.35
2022-09-28T11:07:58.151Z,12.70
2022-09-28T11:10:34.048Z,17.45
2022-09-28T11:13:15.491Z,12.32
2022-09-28T11:15:51.544Z,7.45
2022-09-28T11:21:44.420Z,5.22
2022-09-28T11:24:19.078Z,9.77
2022-09-28T11:26:52.276Z,8.30
2022-09-28T11:29:39.368Z,5.18
2022-09-28T11:32:45.024Z,4.18
2022-09-28T11:35:38.999Z,2.40
2022-09-28T11:38:26.129Z,7.03
2022-09-28T11:41:25.311Z,3.53
2022-09-28T11:44:15.328Z,5.55
2022-09-28T11:46:52.871Z,8.15
2022-09-28T11:49:21.220Z,3.75
2022-09-28T11:51:53.377Z,3.70
2022-09-28T11:54:38.885Z,4.90
2022-09-28T11:57:12.533Z,5.45
2022-09-28T11:59:50.722Z,3.53
2022-09-28T12:02:28.048Z,2.58
2022-09-28T12:05:01.817Z,1.98
2022-09-28T12:07:52.153Z,3.75
2022-09-28T12:10:45.260Z,2.33
2022-09-28T12:13:28.851Z,2.20
2022-09-28T12:19:30.411Z,1.95
2022-09-28T12:22:05.717Z,1.50
2022-09-28T12:24:53.242Z,1.20
2022-09-28T12:27:33.694Z,2.30
2022-09-28T12:30:22.350Z,1.75
2022-09-28T12:33:07.519Z,0.93
2022-09-28T12:36:00.542Z,2.10
2022-09-28T12:38:28.876Z,1.13
2022-09-28T12:41:21.354Z,1.40
2022-09-28T12:44:13.665Z,1.40
2022-09-28T12:47:17.746Z,1.25
2022-09-28T12:50:43.290Z,1.10
2022-09-28T12:53:24.834Z,1.70
2022-09-28T12:56:05.275Z,1.05
2022-09-28T12:58:58.154Z,0.52
2022-09-28T13:01:45.101Z,2.83
2022-09-28T13:04:39.236Z,1.42
2022-09-28T13:07:21.502Z,1.08
2022-09-28T13:10:08.445Z,0.70
2022-09-28T13:12:56.339Z,0.50
2022-09-28T13:16:03.000Z,1.67
2022-09-28T13:19:04.629Z,0.73
2022-09-28T13:21:47.688Z,1.10
2022-09-28T13:24:32.076Z,0.77
2022-09-28T13:27:17.529Z,0.50
2022-09-28T13:29:47.342Z,0.45
2022-09-28T13:32:17.928Z,1.42
2022-09-28T13:34:50.958Z,1.77
2022-09-28T13:37:25.343Z,1.20
2022-09-28T13:39:55.891Z,0.55
2022-09-28T13:42:42.568Z,0.55
2022-09-28T13:45:23.069Z,0.85
2022-09-28T13:48:42.427Z,1.52
2022-09-28T13:51:28.008Z,0.30
2022-09-28T13:53:59.275Z,0.50
2022-09-28T13:56:52.872Z,0.60
2022-09-28T13:59:32.902Z,0.73
2022-09-28T14:02:13.732Z,0.70
2022-09-28T14:05:26.645Z,1.77
2022-09-28T14:08:10.028Z,2.08
2022-09-28T14:10:53.111Z,1.00
2022-09-28T14:13:42.828Z,0.50
2022-09-28T14:16:21.546Z,0.50
2022-09-28T14:18:58.249Z,2.08
2022-09-28T14:21:45.594Z,0.90
2022-09-28T14:24:51.127Z,0.57
2022-09-28T14:27:37.957Z,0.50
2022-09-28T14:30:12.291Z,1.40
2022-09-28T14:33:07.756Z,0.63
2022-09-28T14:35:50.078Z,0.30
2022-09-28T14:38:31.764Z,0.75
2022-09-28T14:41:09.681Z,0.60
2022-09-28T14:43:45.023Z,0.30
2022-09-28T14:46:13.443Z,1.30
2022-09-28T14:48:51.671Z,1.40
2022-09-28T14:51:28.972Z,0.82
2022-09-28T14:54:13.746Z,1.02
2022-09-28T14:56:45.449Z,0.52
2022-09-28T14:59:24.873Z,0.30
2022-09-28T15:02:07.021Z,1.20
2022-09-28T15:04:40.847Z,0.50
2022-09-28T15:07:29.391Z,0.45
2022-09-28T15:12:32.850Z,0.38
2022-09-28T15:15:19.746Z,0.55
2022-09-28T15:17:54.734Z,0.65
2022-09-28T15:20:34.230Z,0.85
2022-09-28T15:23:02.541Z,0.52
2022-09-28T15:25:32.591Z,1.90
2022-09-28T15:28:13.760Z,1.02
2022-09-28T15:30:42.125Z,0.98
2022-09-28T15:33:31.133Z,0.57
2022-09-28T15:36:06.385Z,1.27
2022-09-28T15:38:36.323Z,0.70
2022-09-28T15:41:06.992Z,1.13
2022-09-28T15:43:36.122Z,1.10
2022-09-28T15:46:19.735Z,0.57
2022-09-28T15:48:55.464Z,0.60
2022-09-28T15:51:28.332Z,0.63
2022-09-28T15:54:14.245Z,1.42
2022-09-28T15:56:59.990Z,0.40
2022-09-28T15:59:33.777Z,0.40
2022-09-28T16:02:10.972Z,0.63
2022-09-28T16:04:54.138Z,0.32
2022-09-28T16:07:42.085Z,0.75
2022-09-28T16:10:13.311Z,0.40
2022-09-28T16:12:45.542Z,0.57
2022-09-28T16:15:21.670Z,0.55
2022-09-28T16:17:52.857Z,0.98
2022-09-28T16:20:27.390Z,0.40
2022-09-28T16:22:57.107Z,0.60
2022-09-28T16:25:27.235Z,0.45
2022-09-28T16:27:56.525Z,3.30
2022-09-28T16:30:33.787Z,0.30
2022-09-28T16:33:06.114Z,0.47
2022-09-28T16:35:52.050Z,0.70
2022-09-28T16:38:20.793Z,1.50
2022-09-28T16:43:29.856Z,0.80
2022-09-28T16:46:00.917Z,1.15
2022-09-28T16:48:34.207Z,0.70
2022-09-28T16:51:02.451Z,0.32
2022-09-28T16:53:30.738Z,0.75
2022-09-28T16:55:59.233Z,0.52
2022-09-28T16:58:27.968Z,1.73
2022-09-28T17:03:24.517Z,0.70
2022-09-28T17:06:02.622Z,1.27
2022-09-28T17:08:31.115Z,0.95
2022-09-28T17:11:22.579Z,0.68
2022-09-28T17:13:49.131Z,1.33
2022-09-28T17:16:27.933Z,1.20
2022-09-28T17:19:16.889Z,0.63
2022-09-28T17:21:45.283Z,0.63
2022-09-28T17:24:13.500Z,1.00
2022-09-28T17:26:41.906Z,0.85
2022-09-28T17:29:13.116Z,1.05
2022-09-28T17:31:45.564Z,0.40
2022-09-28T17:34:15.050Z,1.38
2022-09-28T17:36:44.465Z,0.82
2022-09-28T17:39:15.515Z,0.80
2022-09-28T17:41:43.936Z,0.95
2022-09-28T17:44:12.353Z,1.25
2022-09-28T17:46:44.716Z,0.60
2022-09-28T17:49:12.956Z,0.80
2022-09-28T17:51:41.051Z,1.58
2022-09-28T17:54:10.110Z,0.60
2022-09-28T17:56:40.532Z,0.55
2022-09-28T17:59:13.428Z,1.63
2022-09-28T18:01:42.123Z,1.42
2022-09-28T18:04:19.184Z,1.13
2022-09-28T18:06:56.112Z,1.38
2022-09-28T18:09:24.311Z,0.95
2022-09-28T18:11:58.662Z,2.05
2022-09-28T18:14:26.908Z,1.02
2022-09-28T18:16:55.033Z,1.38
2022-09-28T18:19:23.171Z,0.93
2022-09-28T18:21:51.392Z,0.98
2022-09-28T18:24:19.596Z,2.25
2022-09-28T18:26:47.912Z,1.90
2022-09-28T18:29:18.399Z,1.23
2022-09-28T18:31:46.644Z,0.75
2022-09-28T18:34:15.244Z,1.42
2022-09-28T18:39:11.607Z,1.15
2022-09-28T18:41:39.964Z,0.90
2022-09-28T18:44:08.101Z,1.45
2022-09-28T18:46:36.403Z,0.95
2022-09-28T18:49:07.635Z,0.85
2022-09-28T18:51:36.069Z,1.58
2022-09-28T18:54:04.848Z,1.00
2022-09-28T18:56:33.644Z,1.10
2022-09-28T18:59:02.021Z,1.95
2022-09-28T19:01:31.318Z,1.23
2022-09-28T19:04:05.237Z,2.55
2022-09-28T19:06:34.802Z,0.90
2022-09-28T19:09:02.922Z,2.42
2022-09-28T19:11:31.246Z,1.65
2022-09-28T19:13:59.850Z,2.30
2022-09-28T19:16:30.263Z,1.20
2022-09-28T19:18:59.427Z,0.98
2022-09-28T19:21:27.752Z,2.00
2022-09-28T19:23:56.023Z,1.45
2022-09-28T19:26:26.865Z,1.00
2022-09-28T19:28:57.127Z,2.97
2022-09-28T19:31:26.567Z,1.95
2022-09-28T19:33:54.891Z,1.00
2022-09-28T19:36:25.927Z,1.40
2022-09-28T19:38:54.092Z,1.30
2022-09-28T19:41:24.734Z,1.63
2022-09-28T19:43:53.018Z,1.77
2022-09-28T19:46:21.198Z,2.15
2022-09-28T19:48:49.521Z,1.38
2022-09-28T19:51:17.701Z,1.58
2022-09-28T19:53:45.872Z,1.88
2022-09-28T19:56:13.989Z,1.77
2022-09-28T19:58:42.360Z,2.17
2022-09-28T20:01:10.528Z,2.65
2022-09-28T20:03:41.762Z,3.58
2022-09-28T20:06:11.824Z,1.85
2022-09-28T20:08:44.760Z,3.25
2022-09-28T20:11:13.385Z,1.35
2022-09-28T20:13:41.440Z,1.58
2022-09-28T20:16:28.817Z,1.15
2022-09-28T20:18:59.358Z,1.80
2022-09-28T20:21:27.904Z,2.10
2022-09-28T20:23:56.530Z,1.45
2022-09-28T20:28:54.638Z,2.03
2022-09-28T20:31:24.954Z,1.27
2022-09-28T20:33:53.438Z,2.00
2022-09-28T20:36:24.029Z,1.13
2022-09-28T20:38:54.556Z,1.48
2022-09-28T20:42:21.782Z,2.17
2022-09-28T20:44:50.199Z,1.35
2022-09-28T20:47:18.346Z,2.05
2022-09-28T20:49:46.593Z,1.92
2022-09-28T20:52:14.763Z,1.17
2022-09-28T20:54:43.030Z,3.78
2022-09-28T20:57:11.261Z,2.30
2022-09-28T20:59:40.085Z,2.22
2022-09-28T21:04:37.008Z,1.92
2022-09-28T21:07:05.167Z,2.72
2022-09-28T21:09:33.377Z,4.32
2022-09-28T21:12:02.090Z,3.17
2022-09-28T21:16:58.125Z,4.72
2022-09-28T21:19:26.496Z,5.22
2022-09-28T21:21:54.701Z,5.55
2022-09-28T21:24:23.019Z,4.93
2022-09-28T21:26:51.183Z,5.82
2022-09-28T21:29:19.379Z,5.68
2022-09-28T21:31:47.823Z,6.20
2022-09-28T21:34:18.602Z,5.68
2022-09-28T21:36:48.396Z,5.22
2022-09-28T21:39:16.596Z,7.15
2022-09-28T21:41:45.270Z,6.25
2022-09-28T21:44:13.573Z,5.18
2022-09-28T21:46:41.975Z,6.50
2022-09-28T21:49:11.415Z,5.63
2022-09-28T21:51:39.782Z,5.55
2022-09-28T21:54:08.029Z,6.00
2022-09-28T21:56:36.228Z,6.75
2022-09-28T21:59:04.551Z,6.43
2022-09-28T22:01:32.931Z,4.75
2022-09-28T22:04:01.411Z,4.97
2022-09-28T22:06:29.821Z,5.25
2022-09-28T22:08:58.110Z,4.68
2022-09-28T22:11:29.085Z,3.72
2022-09-28T22:13:59.497Z,5.78
2022-09-28T22:16:32.012Z,5.38
2022-09-28T22:19:00.450Z,3.53
2022-09-28T22:21:33.286Z,5.90
2022-09-28T22:24:04.374Z,4.05
2022-09-28T22:26:34.861Z,6.97
2022-09-28T22:29:06.188Z,5.13
2022-09-28T22:31:38.264Z,4.47
2022-09-28T22:34:08.029Z,4.18
2022-09-28T22:36:36.600Z,3.45
2022-09-28T22:39:05.640Z,5.53
2022-09-28T22:41:34.229Z,4.50
2022-09-28T22:44:02.791Z,3.88
2022-09-28T22:46:30.949Z,4.13
2022-09-28T22:49:00.308Z,2.50
2022-09-28T22:51:30.605Z,4.68
2022-09-28T22:53:59.418Z,3.25
2022-09-28T22:56:28.141Z,4.55
2022-09-28T22:58:56.280Z,4.25
2022-09-28T23:01:27.303Z,4.32
2022-09-28T23:03:56.818Z,4.05
2022-09-28T23:06:27.376Z,4.20
2022-09-28T23:08:55.988Z,4.70
2022-09-28T23:11:24.298Z,3.78
2022-09-28T23:13:54.274Z,4.65
2022-09-28T23:16:22.810Z,4.88
2022-09-28T23:21:22.203Z,4.68
2022-09-28T23:23:55.821Z,5.30
2022-09-28T23:26:27.181Z,4.40
2022-09-28T23:28:56.201Z,4.88
2022-09-28T23:31:34.937Z,4.78
2022-09-28T23:34:05.794Z,4.53
2022-09-28T23:36:34.594Z,4.30
2022-09-28T23:39:03.966Z,5.18
2022-09-28T23:41:32.164Z,6.40
2022-09-28T23:44:00.435Z,5.15
2022-09-28T23:46:28.709Z,3.83
2022-09-28T23:48:57.020Z,5.07
2022-09-28T23:51:25.269Z,4.18
2022-09-28T23:53:53.560Z,4.28
2022-09-28T23:56:21.910Z,4.80
2022-09-28T23:58:49.980Z,5.35
